Station: Whyalla

  Atmospheric Gas Attenuation - ITU Rec 676-11   --------------- db/100km ---------------
Date Time Temp RH % AH g/m3 Dew Point Wind Direction Speed kph Gust kph Barometer mB Rainfall Since 9am 24GHz 47GHz 76GHz 122GHz 134GHz 241GHz
21 18:40 17.7 56 8.45 8.8 20 24 1009.1 0 19.1 24.4 37.2 97.5 91.4 314.6
21 18:30 17.9 54 8.24 8.5 24 32 1008.9 0 18.6 24.0 36.3 95.1 88.6 304.7
21 18:20 18.1 53 8.19 8.4 26 30 1008.5 0 18.5 23.9 36.0 94.4 87.7 301.7
21 18:10 18.5 51 8.07 8.2 28 33 1008.2 0 18.3 23.6 35.3 92.7 85.8 295.0
21 18:00 18.7 48 7.68 7.5 32 46 1007.9 0 17.4 23.0 33.8 88.6 80.9 277.8
21 17:50 19.3 46 7.63 7.4 39 48 1007.6 0 17.3 22.7 33.4 87.5 79.7 273.6
21 17:40 20.2 40 6.99 6.2 37 46 1007.3 0 15.9 21.6 30.8 80.5 71.4 244.7
21 17:30 20.6 35 6.26 4.6 33 52 1006.9 0 14.4 20.5 28.2 73.5 62.9 214.8
21 17:20 20.7 36 6.48 5.1 32 37 1006.7 0 14.8 20.8 28.8 75.4 65.2 223.0
21 17:10 21 35 6.41 5 41 48 1006.6 0 14.7 20.6 28.5 74.5 64.2 219.5
21 17:00 21.3 34 6.34 4.8 32 46 1006.6 0 14.5 20.4 28.2 73.6 63.2 216.0
21 16:50 21.5 32 6.03 4.1 28 35 1006.5 0 13.8 20.0 27.1 70.7 59.7 203.7
21 16:40 21.8 32 6.14 4.4 30 35 1006.2 0 14.1 20.0 27.3 71.3 60.6 207.1
21 16:30 22.1 31 6.05 4.2 33 54 1006.1 0 13.9 19.9 26.9 70.3 59.4 202.9
21 16:20 22.1 32 6.25 4.6 30 35 1006 0 14.3 20.1 27.6 72.0 61.6 210.4
21 16:10 22.1 30 5.86 3.7 37 46 1005.7 0 13.5 19.6 26.3 68.6 57.4 195.7
21 16:00 22.6 32 6.43 5.1 33 52 1005.7 0 14.6 20.2 28.0 73.1 63.1 215.9
21 15:50 22.6 30 6.03 4.2 35 44 1005.7 0 13.8 19.7 26.7 69.7 58.8 200.9
21 15:40 22.4 30 5.96 4 33 41 1005.8 0 13.7 19.7 26.5 69.2 58.2 198.8
21 15:30 22.6 31 6.23 4.6 33 48 1005.6 0 14.2 20.0 27.3 71.4 61.0 208.3
21 15:20 22.2 31 6.09 4.3 35 39 1005.8 0 13.9 19.9 27.0 70.5 59.8 204.1
21 15:10 23.5 30 6.34 4.9 32 41 1005.7 0 14.4 19.9 27.4 71.6 61.5 210.2
21 15:00 22.7 31 6.26 4.7 37 54 1005.8 0 14.3 20.0 27.4 71.6 61.2 209.2
21 14:50 23 29 5.96 4 30 35 1005.8 0 13.6 19.5 26.4 68.7 57.8 197.3
21 14:40 23 28 5.75 3.5 30 37 1005.8 0 13.2 19.3 25.7 67.0 55.6 189.6
21 14:30 23.8 29 6.24 4.7 33 54 1005.9 0 14.2 19.7 27.0 70.5 60.2 205.8
21 14:20 23 28 5.75 3.5 32 37 1005.9 0 13.2 19.3 25.7 67.0 55.6 189.6
21 14:10 23 28 5.75 3.5 33 35 1006 0 13.2 19.3 25.7 67.0 55.6 189.6
21 14:00 23.1 28 5.79 3.6 33 56 1006 0 13.3 19.3 25.8 67.2 56.0 190.9
21 13:50 22.7 26 5.25 2.2 33 44 1006.3 0 12.2 18.7 24.2 63.0 50.7 172.1
21 13:40 22.4 27 5.36 2.5 26 33 1006.1 0 12.4 18.9 24.7 64.2 52.0 176.7
21 13:30 23.1 26 5.37 2.6 33 50 1006.2 0 12.4 18.8 24.5 63.7 51.6 175.6
21 13:20 22.3 26 5.13 1.9 32 39 1006.2 0 11.9 18.6 24.0 62.3 49.7 168.6
21 13:10 22.4 28 5.56 3 35 37 1006.5 0 12.8 19.2 25.3 65.9 54.1 184.1
21 13:00 22.5 28 5.59 3.1 32 50 1006.5 0 12.9 19.2 25.4 66.1 54.3 185.0
21 12:50 21.5 29 5.47 2.7 39 48 1006.7 0 12.7 19.2 25.3 65.8 53.7 182.8
21 12:40 22.3 28 5.53 2.9 37 43 1006.7 0 12.8 19.2 25.2 65.7 53.8 183.2
21 12:30 21.7 28 5.34 2.4 39 59 1006.7 0 12.4 19.0 24.8 64.6 52.2 177.5
21 12:20 21.6 26 4.93 1.3 37 43 1006.8 0 11.5 18.5 23.6 61.2 48.1 162.8
21 12:10 21.5 29 5.47 2.7 39 46 1007 0 12.7 19.3 25.3 65.9 53.7 182.8
21 12:00 21.3 29 5.41 2.6 35 46 1007 0 12.6 19.2 25.2 65.5 53.2 181.0
21 11:50 20.9 30 5.46 2.7 39 44 1007.3 0 12.7 19.4 25.5 66.3 54.0 183.8
21 11:40 20.5 29 5.16 1.9 44 52 1007.4 0 12.1 19.1 24.6 64.0 51.1 173.5
21 11:30 20.6 28 5.01 1.5 39 54 1007.4 0 11.7 18.9 24.1 62.7 49.5 167.8
21 11:20 20.9 28 5.1 1.7 35 41 1007.2 0 11.9 18.9 24.3 63.2 50.3 170.5
21 11:10 20.4 30 5.31 2.3 35 39 1007.2 0 12.4 19.3 25.1 65.4 52.8 179.3
21 11:00 20 30 5.18 1.9 44 65 1007.4 0 12.1 19.2 24.8 64.6 51.7 175.3
21 10:50 19.9 31 5.33 2.3 41 50 1007.3 0 12.4 19.4 25.3 66.0 53.3 181.1
21 10:40 19.5 31 5.2 1.9 41 48 1007.4 0 12.2 19.3 25.0 65.2 52.2 177.1
21 10:30 19.2 31 5.11 1.7 41 57 1007.7 0 12.0 19.3 24.9 64.6 51.4 174.4
21 10:20 19.5 31 5.2 1.9 41 50 1007.7 0 12.2 19.3 25.1 65.2 52.2 177.2
21 10:10 19.3 31 5.14 1.8 50 59 1007.7 0 12.1 19.3 24.9 64.8 51.7 175.3
21 10:00 19 31 5.05 1.5 43 56 1007.8 0 11.9 19.2 24.7 64.3 50.9 172.6
21 09:50 19.1 30 4.92 1.1 43 48 1007.7 0 11.6 19.0 24.3 63.1 49.5 167.5
21 09:40 18.7 30 4.8 0.8 44 52 1008 0 11.4 19.0 24.0 62.4 48.4 163.9
21 09:30 18.6 31 4.93 1.2 39 56 1008 0 11.6 19.2 24.5 63.6 49.9 168.9
21 09:20 17.8 31 4.7 0.5 41 54 1008.1 0 11.2 19.0 23.9 62.2 47.9 161.9
21 09:10 17.5 32 4.77 0.6 39 43 1008.1 0 11.3 19.2 24.3 63.0 48.8 165.1
21 09:00 17.5 35 5.22 1.9 33 46 1008 0 12.3 19.8 25.7 67.0 53.7 182.3
21 08:50 17.1 38 5.53 2.7 35 43 1008.1 0 12.9 20.3 26.9 70.1 57.4 195.3
21 08:40 16.4 39 5.44 2.4 35 41 1008.2 0 12.8 20.3 26.8 69.9 56.9 193.5
21 08:30 16.1 41 5.62 2.9 32 44 1008.1 0 13.2 20.6 27.5 71.8 59.2 201.3
21 08:20 15.9 41 5.55 2.7 33 39 1008.2 0 13.0 20.6 27.4 71.3 58.5 199.0
21 08:10 15.5 42 5.55 2.7 32 37 1008 0 13.0 20.7 27.5 71.7 58.8 200.0
21 08:00 15.2 42 5.45 2.4 26 39 1008 0 12.8 20.6 27.3 71.0 57.9 196.7
21 07:50 15 44 5.64 2.9 20 28 1007.9 0 13.3 20.9 28.0 72.9 60.2 204.8
21 07:40 14.4 47 5.81 3.2 22 28 1007.9 0 13.6 21.3 28.8 75.1 62.7 213.3
21 07:30 13.6 51 6 3.7 20 28 1008 0 14.1 21.8 29.8 77.7 65.6 223.4
21 07:20 12.8 55 6.16 4 22 28 1008 0 14.4 22.2 30.6 80.0 68.2 232.4
21 07:10 12 60 6.4 4.5 20 24 1008 0 15.0 22.7 31.8 83.2 71.8 245.1
21 07:00 11.2 63 6.39 4.4 20 28 1008 0 15.0 22.9 32.1 84.0 72.4 247.2
21 06:50 10.7 64 6.29 4.2 20 24 1008.1 0 14.8 22.9 31.9 83.5 71.6 244.3
21 06:40 10.4 64 6.17 3.9 19 20 1008.1 0 14.5 22.8 31.6 82.6 70.4 239.9
21 06:30 10.2 64 6.09 3.7 15 19 1008 0 14.4 22.7 31.4 82.0 69.6 237.0
21 06:20 9.6 67 6.14 3.8 13 15 1008 0 14.5 22.9 31.8 83.1 70.7 241.0
21 06:10 9 70 6.17 3.8 13 13 1008 0 14.6 23.1 32.1 84.0 71.6 244.2
21 06:00 9.3 67 6.02 3.5 13 15 1008 0 14.3 22.8 31.4 82.2 69.5 236.6
21 05:50 9.9 66 6.16 3.9 15 17 1007.9 0 14.5 22.9 31.7 83.0 70.7 241.0
21 05:40 9.2 67 5.98 3.4 13 17 1007.9 0 14.2 22.8 31.3 81.9 69.0 235.1
21 05:30 9.5 66 6.01 3.5 9 13 1008 0 14.2 22.8 31.3 81.9 69.2 235.6
21 05:20 9.8 66 6.13 3.8 13 15 1007.9 0 14.5 22.9 31.7 82.8 70.4 239.9
21 05:10 9.7 65 5.99 3.4 7 9 1007.9 0 14.2 22.7 31.2 81.5 68.7 234.1
21 04:50 9.5 67 6.1 3.7 11 13 1007.9 0 14.4 22.9 31.7 82.8 70.3 239.5
21 04:40 9.4 68 6.15 3.8 13 13 1007.9 0 14.5 23.0 31.9 83.4 71.0 242.0
21 04:30 9.7 67 6.18 3.9 13 17 1007.9 0 14.6 23.0 31.9 83.4 71.1 242.5
21 04:20 10.3 65 6.23 4 15 17 1007.9 0 14.7 22.9 31.9 83.3 71.2 242.9
21 04:10 9.5 68 6.19 3.9 11 13 1007.8 0 14.6 23.0 32.0 83.7 71.4 243.5
21 04:00 9.5 69 6.28 4.1 13 17 1008 0 14.8 23.2 32.4 84.6 72.6 247.6
21 03:50 9.2 68 6.07 3.6 13 13 1007.9 0 14.4 22.9 31.7 82.8 70.2 239.1
21 03:40 9.6 68 6.23 4 13 13 1008 0 14.7 23.1 32.1 84.0 71.9 245.0
21 03:30 9.7 66 6.09 3.7 11 13 1008 0 14.4 22.8 31.6 82.5 70.0 238.5
21 03:20 10 65 6.11 3.7 11 11 1008.1 0 14.4 22.8 31.5 82.4 70.0 238.5
21 03:10 10.1 66 6.24 4 11 13 1008.2 0 14.7 23.0 32.0 83.6 71.5 244.0
21 03:00 9.9 66 6.16 3.9 11 15 1008.3 0 14.5 22.9 31.8 83.0 70.7 241.1
21 02:50 10.5 63 6.11 3.8 11 15 1008.3 0 14.4 22.7 31.3 81.9 69.6 237.1
21 02:40 10.8 59 5.83 3.1 13 15 1008.5 0 13.8 22.2 30.2 78.8 65.8 224.0
21 02:30 11.3 57 5.82 3.1 11 15 1008.5 0 13.8 22.1 30.0 78.2 65.3 222.2
21 02:20 11.1 60 6.04 3.6 9 11 1008.3 0 14.2 22.4 30.8 80.6 68.2 232.2
21 02:10 11 60 6.01 3.5 11 11 1008.3 0 14.2 22.4 30.8 80.4 67.9 231.2
21 02:00 11.3 58 5.92 3.3 11 15 1008.3 0 14.0 22.2 30.3 79.2 66.5 226.5

Last Refresh: 21-Sep-2020 18:50:00

Most of the information presented on this site is sourced from the Bureau of Meteorology.  Copyright in all material sourced from the Bureau of Meteorology resides with the Commonwealth of Australia.